createdAt,value
2018-08-07T00:00:53.760Z,4.77
2018-08-07T00:03:23.030Z,4.63
2018-08-07T00:05:54.466Z,4.77
2018-08-07T00:08:37.045Z,4.57
2018-08-07T00:11:08.782Z,4.60
2018-08-07T00:13:39.681Z,4.27
2018-08-07T00:16:09.259Z,4.67
2018-08-07T00:18:43.413Z,5.00
2018-08-07T00:21:13.449Z,4.90
2018-08-07T00:23:43.634Z,4.87
2018-08-07T00:26:13.577Z,5.13
2018-08-07T00:28:46.953Z,5.40
2018-08-07T00:31:17.276Z,4.87
2018-08-07T00:33:47.539Z,5.00
2018-08-07T00:36:18.793Z,5.47
2018-08-07T00:38:55.293Z,5.03
2018-08-07T00:41:25.204Z,4.80
2018-08-07T00:43:54.961Z,5.13
2018-08-07T00:46:24.869Z,4.47
2018-08-07T00:48:56.771Z,4.77
2018-08-07T00:51:26.230Z,4.97
2018-08-07T00:53:56.475Z,5.13
2018-08-07T00:56:25.802Z,4.50
2018-08-07T00:58:56.090Z,4.90
2018-08-07T01:01:25.402Z,4.90
2018-08-07T01:03:55.418Z,4.37
2018-08-07T01:06:25.511Z,5.30
2018-08-07T01:08:55.857Z,5.17
2018-08-07T01:11:26.529Z,4.87
2018-08-07T01:13:55.852Z,4.93
2018-08-07T01:16:25.899Z,4.93
2018-08-07T01:19:18.650Z,4.50
2018-08-07T01:21:48.641Z,5.20
2018-08-07T01:24:17.923Z,4.43
2018-08-07T01:26:48.696Z,4.60
2018-08-07T01:29:29.213Z,4.77
2018-08-07T01:31:59.018Z,5.27
2018-08-07T01:34:30.357Z,4.60
2018-08-07T01:36:59.679Z,4.70
2018-08-07T01:39:32.371Z,4.80
2018-08-07T01:42:01.948Z,4.60
2018-08-07T01:44:31.981Z,5.07
2018-08-07T01:47:03.129Z,4.77
2018-08-07T01:49:36.837Z,4.57
2018-08-07T01:52:07.606Z,5.20
2018-08-07T01:54:37.253Z,4.73
2018-08-07T01:57:07.118Z,4.87
2018-08-07T01:59:38.563Z,4.43
2018-08-07T02:02:12.150Z,4.77
2018-08-07T02:04:43.640Z,5.10
2018-08-07T02:07:13.880Z,4.73
2018-08-07T02:09:45.694Z,4.77
2018-08-07T02:12:16.158Z,4.50
2018-08-07T02:14:46.529Z,4.83
2018-08-07T02:17:16.608Z,4.27
2018-08-07T02:19:49.997Z,4.87
2018-08-07T02:22:19.319Z,5.07
2018-08-07T02:24:49.085Z,4.77
2018-08-07T02:27:18.409Z,5.10
2018-08-07T02:30:02.391Z,4.83
2018-08-07T02:32:32.704Z,4.93
2018-08-07T02:35:03.095Z,4.90
2018-08-07T02:37:33.459Z,4.97
2018-08-07T02:40:03.422Z,4.97
2018-08-07T02:42:33.176Z,4.90
2018-08-07T02:45:03.140Z,5.20
2018-08-07T02:47:33.867Z,4.83
2018-08-07T02:50:06.056Z,4.93
2018-08-07T02:52:36.388Z,4.77
2018-08-07T02:55:07.360Z,5.33
2018-08-07T02:57:38.191Z,4.90
2018-08-07T03:00:18.798Z,4.73
2018-08-07T03:02:48.321Z,5.10
2018-08-07T03:05:18.491Z,4.80
2018-08-07T03:07:47.934Z,4.70
2018-08-07T03:10:29.964Z,4.70
2018-08-07T03:12:59.792Z,4.90
2018-08-07T03:15:29.090Z,5.20
2018-08-07T03:17:59.275Z,5.10
2018-08-07T03:20:29.370Z,5.40
2018-08-07T03:22:59.123Z,5.10
2018-08-07T03:25:28.403Z,5.70
2018-08-07T03:27:58.622Z,5.00
2018-08-07T03:30:27.955Z,5.30
2018-08-07T03:32:57.665Z,5.00
2018-08-07T03:35:27.323Z,4.63
2018-08-07T03:37:57.522Z,5.00
2018-08-07T03:45:28.573Z,5.70
2018-08-07T03:47:59.481Z,5.00
2018-08-07T03:50:28.786Z,5.43
2018-08-07T03:52:58.764Z,5.10
2018-08-07T03:55:29.190Z,5.37
2018-08-07T03:57:58.978Z,5.10
2018-08-07T04:00:28.330Z,5.13
2018-08-07T04:02:58.013Z,5.27
2018-08-07T04:05:28.163Z,5.33
2018-08-07T04:07:58.498Z,5.13
2018-08-07T04:10:27.822Z,5.30
2018-08-07T04:12:57.376Z,4.97
2018-08-07T04:15:27.211Z,5.37
2018-08-07T04:17:57.110Z,5.47
2018-08-07T04:20:26.422Z,5.03
2018-08-07T04:22:56.164Z,5.27
2018-08-07T04:25:26.359Z,5.00
2018-08-07T04:27:55.701Z,5.60
2018-08-07T04:30:25.656Z,4.97
2018-08-07T04:32:55.398Z,5.23
2018-08-07T04:35:25.399Z,5.20
2018-08-07T04:37:55.721Z,5.00
2018-08-07T04:40:25.022Z,5.43
2018-08-07T04:42:55.010Z,4.83
2018-08-07T04:45:24.669Z,5.10
2018-08-07T04:47:54.449Z,5.57
2018-08-07T04:50:23.778Z,5.23
2018-08-07T04:52:53.127Z,6.00
2018-08-07T04:55:23.120Z,5.47
2018-08-07T04:57:53.157Z,5.40
2018-08-07T05:00:22.738Z,5.73
2018-08-07T05:02:52.030Z,5.40
2018-08-07T05:05:22.363Z,5.50
2018-08-07T05:07:51.688Z,5.50
2018-08-07T05:10:21.659Z,5.63
2018-08-07T05:12:52.290Z,5.27
2018-08-07T05:15:21.632Z,5.90
2018-08-07T05:17:51.166Z,6.37
2018-08-07T05:20:22.747Z,5.73
2018-08-07T05:22:52.810Z,5.43
2018-08-07T05:25:22.545Z,5.40
2018-08-07T05:27:52.930Z,5.43
2018-08-07T05:30:23.436Z,5.77
2018-08-07T05:32:53.122Z,5.50
2018-08-07T05:35:26.134Z,6.43
2018-08-07T05:37:55.704Z,5.77
2018-08-07T05:40:28.121Z,5.33
2018-08-07T05:42:58.673Z,5.43
2018-08-07T05:45:29.277Z,5.30
2018-08-07T05:47:58.542Z,5.43
2018-08-07T05:50:28.801Z,5.57
2018-08-07T05:52:58.473Z,5.80
2018-08-07T05:55:27.749Z,6.37
2018-08-07T05:57:57.869Z,6.07
2018-08-07T06:00:33.021Z,6.07
2018-08-07T06:03:03.290Z,5.73
2018-08-07T06:05:32.675Z,5.97
2018-08-07T06:08:03.343Z,5.80
2018-08-07T06:10:32.683Z,5.70
2018-08-07T06:13:02.126Z,5.73
2018-08-07T06:15:32.326Z,6.27
2018-08-07T06:18:01.595Z,6.23
2018-08-07T06:20:31.725Z,5.97
2018-08-07T06:23:01.867Z,6.13
2018-08-07T06:25:31.225Z,6.53
2018-08-07T06:28:00.696Z,6.83
2018-08-07T06:30:29.997Z,6.07
2018-08-07T06:32:59.633Z,6.20
2018-08-07T06:35:28.955Z,5.73
2018-08-07T06:37:58.236Z,5.90
2018-08-07T06:40:27.537Z,6.47
2018-08-07T06:42:59.178Z,6.30
2018-08-07T06:45:29.099Z,6.50
2018-08-07T06:47:59.695Z,6.70
2018-08-07T06:50:31.607Z,6.47
2018-08-07T06:53:02.601Z,7.57
2018-08-07T06:55:32.702Z,7.13
2018-08-07T06:58:02.848Z,6.83
2018-08-07T07:00:32.375Z,6.07
2018-08-07T07:03:04.998Z,5.90
2018-08-07T07:05:34.891Z,6.80
2018-08-07T07:08:04.621Z,6.47
2018-08-07T07:10:34.242Z,6.40
2018-08-07T07:13:03.718Z,6.90
2018-08-07T07:15:32.996Z,6.07
2018-08-07T07:18:03.496Z,6.63
2018-08-07T07:20:32.777Z,6.60
2018-08-07T07:23:02.970Z,6.90
2018-08-07T07:25:32.538Z,6.33
2018-08-07T07:28:03.638Z,6.40
2018-08-07T07:30:34.443Z,6.00
2018-08-07T07:33:04.730Z,5.57
2018-08-07T07:35:34.812Z,6.27
2018-08-07T07:38:04.877Z,5.33
2018-08-07T07:40:35.041Z,6.27
2018-08-07T07:43:04.758Z,5.60
2018-08-07T07:45:35.247Z,6.23
2018-08-07T07:48:04.970Z,6.40
2018-08-07T07:50:34.707Z,5.87
2018-08-07T07:53:04.917Z,5.67
2018-08-07T07:55:35.357Z,6.63
2018-08-07T07:58:06.387Z,6.17
2018-08-07T08:00:36.569Z,5.60
2018-08-07T08:03:10.121Z,6.00
2018-08-07T08:05:41.160Z,5.53
2018-08-07T08:08:11.319Z,6.00
2018-08-07T08:10:41.958Z,6.30
2018-08-07T08:13:12.926Z,5.37
2018-08-07T08:15:42.684Z,6.30
2018-08-07T08:18:12.703Z,6.27
2018-08-07T08:20:42.492Z,5.53
2018-08-07T08:23:13.079Z,5.67
2018-08-07T08:25:42.558Z,6.07
2018-08-07T08:28:12.374Z,6.00
2018-08-07T08:30:43.390Z,6.33
2018-08-07T08:33:13.258Z,6.30
2018-08-07T08:35:43.124Z,6.33
2018-08-07T08:38:13.980Z,6.00
2018-08-07T08:40:44.086Z,5.97
2018-08-07T08:43:13.374Z,5.73
2018-08-07T08:45:44.611Z,5.90
2018-08-07T08:48:16.015Z,6.07
2018-08-07T08:50:47.088Z,5.23
2018-08-07T08:53:17.414Z,5.90
2018-08-07T08:55:48.205Z,6.20
2018-08-07T08:58:19.006Z,5.90
2018-08-07T09:00:48.708Z,6.27
2018-08-07T09:03:18.649Z,5.57
2018-08-07T09:05:48.711Z,5.47
2018-08-07T09:08:19.568Z,6.10
2018-08-07T09:10:49.139Z,6.17
2018-08-07T09:13:19.794Z,6.70
2018-08-07T09:15:49.708Z,5.90
2018-08-07T09:18:19.985Z,6.07
2018-08-07T09:20:49.898Z,6.30
2018-08-07T09:23:19.709Z,5.77
2018-08-07T09:25:49.327Z,5.90
2018-08-07T09:28:19.714Z,6.40
2018-08-07T09:30:48.979Z,6.13
2018-08-07T09:33:20.055Z,5.83
2018-08-07T09:35:50.385Z,5.47
2018-08-07T09:38:21.477Z,5.03
2018-08-07T09:40:52.238Z,5.57
2018-08-07T09:43:22.680Z,5.23
2018-08-07T09:45:53.265Z,5.67
2018-08-07T09:48:22.532Z,5.80
2018-08-07T09:50:52.222Z,5.50
2018-08-07T09:53:21.786Z,5.90
2018-08-07T09:55:52.621Z,5.67
2018-08-07T09:58:22.669Z,5.63
2018-08-07T10:00:59.623Z,5.17
2018-08-07T10:03:30.580Z,5.33
2018-08-07T10:06:01.558Z,5.80
2018-08-07T10:08:31.322Z,5.30
2018-08-07T10:11:02.371Z,5.50
2018-08-07T10:13:33.201Z,6.00
2018-08-07T10:16:03.917Z,5.10
2018-08-07T10:18:34.923Z,6.20
2018-08-07T10:21:05.441Z,5.70
2018-08-07T10:23:36.661Z,5.67
2018-08-07T10:26:06.252Z,5.40
2018-08-07T10:28:36.056Z,5.00
2018-08-07T10:31:05.538Z,5.63
2018-08-07T10:33:35.110Z,5.17
2018-08-07T10:36:04.659Z,5.50
2018-08-07T10:38:35.549Z,5.57
2018-08-07T10:41:05.473Z,5.03
2018-08-07T10:43:35.260Z,5.30
2018-08-07T10:46:05.680Z,5.03
2018-08-07T10:48:35.621Z,5.20
2018-08-07T10:51:05.329Z,5.60
2018-08-07T10:53:35.552Z,5.20
2018-08-07T10:56:06.569Z,5.63
2018-08-07T10:58:36.989Z,5.67
2018-08-07T11:01:08.427Z,5.43
2018-08-07T11:03:38.518Z,6.03
2018-08-07T11:06:08.630Z,5.73
2018-08-07T11:08:39.270Z,5.73
2018-08-07T11:11:10.262Z,5.87
2018-08-07T11:13:41.763Z,5.70
2018-08-07T11:16:11.508Z,5.53
2018-08-07T11:18:42.736Z,5.67
2018-08-07T11:21:12.490Z,5.40
2018-08-07T11:23:43.924Z,5.30
2018-08-07T11:26:13.872Z,5.03
2018-08-07T11:28:44.702Z,5.40
2018-08-07T11:31:14.082Z,5.27
2018-08-07T11:33:44.354Z,5.30
2018-08-07T11:36:13.925Z,4.63
2018-08-07T11:38:43.695Z,4.40
2018-08-07T11:41:13.823Z,4.83
2018-08-07T11:43:43.946Z,4.63
2018-08-07T11:46:13.894Z,5.00
2018-08-07T11:48:43.428Z,4.90
2018-08-07T11:51:13.485Z,4.70
2018-08-07T11:53:42.818Z,4.83
2018-08-07T11:56:12.211Z,4.80
2018-08-07T11:58:42.006Z,4.93
2018-08-07T12:01:12.778Z,4.60
2018-08-07T12:03:43.605Z,4.60
2018-08-07T12:06:14.241Z,4.70
2018-08-07T12:08:45.123Z,4.23
2018-08-07T12:11:15.429Z,4.77
2018-08-07T12:13:46.520Z,4.83
2018-08-07T12:16:21.887Z,4.93
2018-08-07T12:18:51.327Z,4.53
2018-08-07T12:21:21.410Z,3.97
2018-08-07T12:23:52.851Z,4.47
2018-08-07T12:26:22.397Z,3.90
2018-08-07T12:28:52.177Z,4.33
2018-08-07T12:31:22.373Z,4.23
2018-08-07T12:33:53.187Z,4.60
2018-08-07T12:36:23.394Z,4.07
2018-08-07T12:38:52.648Z,4.20
2018-08-07T12:41:23.037Z,3.90
2018-08-07T12:43:52.982Z,4.30
2018-08-07T12:46:23.363Z,4.20
2018-08-07T12:48:55.217Z,3.87
2018-08-07T12:51:25.136Z,4.43
2018-08-07T12:53:56.195Z,4.10
2018-08-07T12:56:26.874Z,4.40
2018-08-07T12:58:58.126Z,4.43
2018-08-07T13:01:28.243Z,4.30
2018-08-07T13:03:57.460Z,4.03
2018-08-07T13:06:29.728Z,4.43
2018-08-07T13:09:00.873Z,4.30
2018-08-07T13:11:31.764Z,4.53
2018-08-07T13:14:02.567Z,4.50
2018-08-07T13:16:32.379Z,4.33
2018-08-07T13:19:01.651Z,4.23
2018-08-07T13:21:31.634Z,4.83
2018-08-07T13:24:01.156Z,4.10
2018-08-07T13:26:31.071Z,3.80
2018-08-07T13:29:01.991Z,3.97
2018-08-07T13:31:33.962Z,4.10
2018-08-07T13:34:05.526Z,4.07
2018-08-07T13:36:35.789Z,3.73
2018-08-07T13:39:08.471Z,4.60
2018-08-07T13:41:39.909Z,3.87
2018-08-07T13:44:10.259Z,3.83
2018-08-07T13:46:40.065Z,4.40
2018-08-07T13:49:10.583Z,4.10
2018-08-07T13:51:41.555Z,3.80
2018-08-07T13:54:11.243Z,4.17
2018-08-07T13:56:42.802Z,4.00
2018-08-07T13:59:12.767Z,3.90
2018-08-07T14:01:42.712Z,4.20
2018-08-07T14:04:12.418Z,3.83
2018-08-07T14:06:43.227Z,3.93
2018-08-07T14:09:13.363Z,4.40
2018-08-07T14:11:43.676Z,4.20
2018-08-07T14:14:14.434Z,4.30
2018-08-07T14:16:43.799Z,4.43
2018-08-07T14:19:14.474Z,4.43
2018-08-07T14:21:48.730Z,4.03
2018-08-07T14:24:18.801Z,4.00
2018-08-07T14:26:48.091Z,4.20
2018-08-07T14:29:18.161Z,4.00
2018-08-07T14:31:49.358Z,4.33
2018-08-07T14:34:19.643Z,4.37
2018-08-07T14:36:50.237Z,4.47
2018-08-07T14:39:19.950Z,4.23
2018-08-07T14:41:49.932Z,3.90
2018-08-07T14:44:19.923Z,4.20
2018-08-07T14:46:50.031Z,3.50
2018-08-07T14:49:20.080Z,3.50
2018-08-07T14:51:49.935Z,3.83
2018-08-07T14:54:19.546Z,3.63
2018-08-07T14:56:49.919Z,3.87
2018-08-07T14:59:19.069Z,3.03
2018-08-07T15:01:49.059Z,3.37
2018-08-07T15:04:18.902Z,3.50
2018-08-07T15:06:48.155Z,3.70
2018-08-07T15:09:18.934Z,3.40
2018-08-07T15:11:49.268Z,3.47
2018-08-07T15:14:19.066Z,3.47
2018-08-07T15:16:48.746Z,3.20
2018-08-07T15:19:19.165Z,3.37
2018-08-07T15:21:48.894Z,3.20
2018-08-07T15:24:20.915Z,2.97
2018-08-07T15:26:50.172Z,3.13
2018-08-07T15:29:21.261Z,2.80
2018-08-07T15:31:50.542Z,2.47
2018-08-07T15:34:20.691Z,2.80
2018-08-07T15:36:50.454Z,2.93
2018-08-07T15:39:21.462Z,2.87
2018-08-07T15:41:51.208Z,2.60
2018-08-07T15:44:21.102Z,3.00
2018-08-07T15:46:50.952Z,2.97
2018-08-07T15:49:22.966Z,2.90
2018-08-07T15:51:52.327Z,3.00
2018-08-07T15:54:22.269Z,2.93
2018-08-07T15:56:52.370Z,2.80
2018-08-07T15:59:22.702Z,2.77
2018-08-07T16:01:52.746Z,2.60
2018-08-07T16:04:22.051Z,2.80
2018-08-07T16:06:51.942Z,3.17
2018-08-07T16:09:21.735Z,2.90
2018-08-07T16:11:52.155Z,2.80
2018-08-07T16:14:23.031Z,2.40
2018-08-07T16:16:52.598Z,2.43
2018-08-07T16:19:22.941Z,2.00
2018-08-07T16:21:52.782Z,2.30
2018-08-07T16:24:22.686Z,3.80
2018-08-07T16:26:54.775Z,2.50
2018-08-07T16:29:24.043Z,2.87
2018-08-07T16:31:54.955Z,2.83
2018-08-07T16:34:24.984Z,2.33
2018-08-07T16:36:54.818Z,2.30
2018-08-07T16:39:25.628Z,2.30
2018-08-07T16:42:02.743Z,2.70
2018-08-07T16:44:32.465Z,2.50
2018-08-07T16:47:02.998Z,2.60
2018-08-07T16:49:34.481Z,2.53
2018-08-07T16:52:04.767Z,2.70
2018-08-07T16:54:34.507Z,2.43
2018-08-07T16:57:05.320Z,2.40
2018-08-07T16:59:35.108Z,2.50
2018-08-07T17:02:05.011Z,2.50
2018-08-07T17:04:35.178Z,2.73
2018-08-07T17:07:05.002Z,2.40
2018-08-07T17:09:36.126Z,2.10
2018-08-07T17:12:05.802Z,2.40
2018-08-07T17:14:36.576Z,2.57
2018-08-07T17:17:06.210Z,2.50
2018-08-07T17:19:35.898Z,2.97
2018-08-07T17:22:07.090Z,3.17
2018-08-07T17:24:37.678Z,2.90
2018-08-07T17:27:06.929Z,3.13
2018-08-07T17:29:37.111Z,3.70
2018-08-07T17:32:06.994Z,3.20
2018-08-07T17:34:37.557Z,3.63
2018-08-07T17:37:08.022Z,3.30
2018-08-07T17:39:37.447Z,3.53
2018-08-07T17:42:07.205Z,3.03
2018-08-07T17:44:37.245Z,3.13
2018-08-07T17:47:06.526Z,2.60
2018-08-07T17:49:36.147Z,3.20
2018-08-07T17:52:07.289Z,2.87
2018-08-07T17:54:40.609Z,3.10
2018-08-07T17:57:11.039Z,3.30
2018-08-07T17:59:42.677Z,3.13
2018-08-07T18:02:12.848Z,3.07
2018-08-07T18:04:43.440Z,2.90
2018-08-07T18:07:13.785Z,3.37
2018-08-07T18:09:43.534Z,3.10
2018-08-07T18:12:13.420Z,3.50
2018-08-07T18:14:43.490Z,3.33
2018-08-07T18:17:14.243Z,3.13
2018-08-07T18:19:45.154Z,3.07
2018-08-07T18:22:16.161Z,3.07
2018-08-07T18:24:45.493Z,3.10
2018-08-07T18:27:15.222Z,3.30
2018-08-07T18:29:44.963Z,3.77
2018-08-07T18:32:14.212Z,3.70
2018-08-07T18:34:43.960Z,3.80
2018-08-07T18:37:14.874Z,3.53
2018-08-07T18:39:45.711Z,3.80
2018-08-07T18:42:16.921Z,3.90
2018-08-07T18:44:46.646Z,3.73
2018-08-07T18:47:15.854Z,3.63
2018-08-07T18:49:45.637Z,3.63
2018-08-07T18:52:15.595Z,3.77
2018-08-07T18:54:45.250Z,3.80
2018-08-07T18:57:15.572Z,3.73
2018-08-07T18:59:44.993Z,4.10
2018-08-07T19:02:15.138Z,3.90
2018-08-07T19:04:44.691Z,3.90
2018-08-07T19:07:14.883Z,4.00
2018-08-07T19:09:46.399Z,4.43
2018-08-07T19:12:17.796Z,4.20
2018-08-07T19:14:47.806Z,3.90
2018-08-07T19:17:17.287Z,4.10
2018-08-07T19:19:47.005Z,4.00
2018-08-07T19:22:18.071Z,3.50
2018-08-07T19:24:48.593Z,4.10
2018-08-07T19:27:19.579Z,4.10
2018-08-07T19:29:51.191Z,4.10
2018-08-07T19:32:21.529Z,3.67
2018-08-07T19:34:51.313Z,4.00
2018-08-07T19:37:22.035Z,3.63
2018-08-07T19:39:52.155Z,3.60
2018-08-07T19:42:22.303Z,3.70
2018-08-07T19:44:53.369Z,3.73
2018-08-07T19:47:22.617Z,3.67
2018-08-07T19:49:55.566Z,3.80
2018-08-07T19:52:25.597Z,3.37
2018-08-07T19:54:56.595Z,3.97
2018-08-07T19:57:26.672Z,3.87
2018-08-07T19:59:56.448Z,4.10
2018-08-07T20:02:26.201Z,4.00
2018-08-07T20:04:55.912Z,3.63
2018-08-07T20:07:26.410Z,3.77
2018-08-07T20:09:56.295Z,3.60
2018-08-07T20:12:26.523Z,4.07
2018-08-07T20:14:56.364Z,4.20
2018-08-07T20:17:26.099Z,4.00
2018-08-07T20:19:55.903Z,3.80
2018-08-07T20:22:25.390Z,4.17
2018-08-07T20:24:58.085Z,4.30
2018-08-07T20:27:27.660Z,3.80
2018-08-07T20:29:57.227Z,4.10
2018-08-07T20:32:27.175Z,3.97
2018-08-07T20:34:57.678Z,3.93
2018-08-07T20:37:28.290Z,4.20
2018-08-07T20:39:57.630Z,3.30
2018-08-07T20:42:27.210Z,3.67
2018-08-07T20:44:57.927Z,3.83
2018-08-07T20:47:29.002Z,3.73
2018-08-07T20:49:58.741Z,4.43
2018-08-07T20:52:29.490Z,3.90
2018-08-07T20:54:59.958Z,4.20
2018-08-07T20:57:30.248Z,3.90
2018-08-07T21:00:00.529Z,4.20
2018-08-07T21:02:30.586Z,4.33
2018-08-07T21:04:59.817Z,4.10
2018-08-07T21:07:30.106Z,4.20
2018-08-07T21:10:00.268Z,4.20
2018-08-07T21:12:30.663Z,4.13
2018-08-07T21:15:00.834Z,3.80
2018-08-07T21:17:30.666Z,4.30
2018-08-07T21:20:00.431Z,4.20
2018-08-07T21:22:30.847Z,4.10
2018-08-07T21:25:00.599Z,3.90
2018-08-07T21:27:31.294Z,4.20
2018-08-07T21:30:01.425Z,4.73
2018-08-07T21:32:31.503Z,4.50
2018-08-07T21:35:02.042Z,4.87
2018-08-07T21:37:30.995Z,4.60
2018-08-07T21:40:00.905Z,4.47
2018-08-07T21:42:30.780Z,4.53
2018-08-07T21:45:00.025Z,4.97
2018-08-07T21:47:30.231Z,4.30
2018-08-07T21:50:00.029Z,4.70
2018-08-07T21:52:30.155Z,4.37
2018-08-07T21:55:00.005Z,4.70
2018-08-07T21:57:29.723Z,4.50
2018-08-07T21:59:59.484Z,4.50
2018-08-07T22:02:32.480Z,4.40
2018-08-07T22:05:03.626Z,4.40
2018-08-07T22:07:33.601Z,4.83
2018-08-07T22:10:03.078Z,4.60
2018-08-07T22:12:32.631Z,4.60
2018-08-07T22:15:02.703Z,4.70
2018-08-07T22:17:31.997Z,4.63
2018-08-07T22:21:02.412Z,4.27
2018-08-07T22:23:30.938Z,4.50
2018-08-07T22:26:00.142Z,4.60
2018-08-07T22:28:28.674Z,4.93
2018-08-07T22:30:57.480Z,4.40
2018-08-07T22:33:26.230Z,4.83
2018-08-07T22:35:54.750Z,4.63
2018-08-07T22:38:24.227Z,4.60
2018-08-07T22:40:53.655Z,3.97
2018-08-07T22:43:22.640Z,4.40
2018-08-07T22:45:51.150Z,4.60
2018-08-07T22:48:19.704Z,4.43
2018-08-07T22:50:49.086Z,4.27
2018-08-07T22:53:17.789Z,4.20
2018-08-07T22:55:47.414Z,4.73
2018-08-07T22:58:17.234Z,4.17
2018-08-07T23:00:45.748Z,4.30
2018-08-07T23:03:14.879Z,4.30
2018-08-07T23:05:45.354Z,4.30
2018-08-07T23:08:14.326Z,4.60
2018-08-07T23:10:42.874Z,4.77
2018-08-07T23:13:11.756Z,4.33
2018-08-07T23:15:44.971Z,4.13
2018-08-07T23:18:13.919Z,4.63
2018-08-07T23:20:43.160Z,4.47
2018-08-07T23:23:12.468Z,4.20
2018-08-07T23:25:41.224Z,4.17
2018-08-07T23:28:11.002Z,4.00
2018-08-07T23:30:40.305Z,4.70
2018-08-07T23:33:09.621Z,4.10
2018-08-07T23:35:38.142Z,4.30
2018-08-07T23:38:08.268Z,3.93
2018-08-07T23:40:37.239Z,4.30
2018-08-07T23:43:06.699Z,4.27
2018-08-07T23:45:35.209Z,4.40
2018-08-07T23:48:03.841Z,4.30
2018-08-07T23:50:32.580Z,4.10
2018-08-07T23:53:01.634Z,4.43
2018-08-07T23:55:30.814Z,4.60
2018-08-07T23:58:00.292Z,4.10
